Caribou Island, Canada
Current Conditions -  °F | °C
As of 8:00 PM on Thursday 30 Oct 2014 (Local Time) from CYXZ Reporting Station
Light Snow Light Snow  
Wind Chill: 28°   Ceiling: 7000
Heat Index: 34°   Visibility: 6mi
Dew Point: 32°   Wind: 7mph
Humidity: 93%   Direction: 50°NE
Pressure: 29.99"   Gusts: NA
Location:  47.33°N, 85.83°W
Report Text: CYXZ 310000Z 05006KT 6SM -SN FEW012 OVC070 01/M00 A2999 RMK SF2AS6 LAST OBS/NEXT 311100UTC SLP171
Loading
Personal Weather Stations






























Interactive Weather Map
Tropical Storm Tracking
New forecast layout! Learn more

10-Day Weather Forecast

Advertisements
Track Severe Weather on mobile